Wetterdaten: aktuell Freitag, 20.05.2022 07:00
Datum Zeit Außentemp Luftfeuchte Luftdruck Regen Wind Windrichtung Windrichtung Sonnenschein ET Solar Windböen
20.05.2022 07:00 15,2 °C 82 % 1023,3 hPa 0,0 l/m² 0,0 km/h (0 Bft) N 0 ° 15 min 0,025 mm 220 W/m² 0,0 km/h (0 Bft)
20.05.2022 06:45 14,9 °C 81 % 1023,2 hPa 0,0 l/m² 0,0 km/h (0 Bft) N 0 ° 0 min 0,000 mm 60 W/m² 0,0 km/h (0 Bft)
20.05.2022 06:30 15,2 °C 80 % 1023,2 hPa 0,0 l/m² 0,0 km/h (0 Bft) N 0 ° 0 min 0,000 mm 44 W/m² 0,0 km/h (0 Bft)
20.05.2022 06:15 15,4 °C 78 % 1023,1 hPa 0,0 l/m² 0,0 km/h (0 Bft) N 0 ° 0 min 0,000 mm 28 W/m² 0,0 km/h (0 Bft)
20.05.2022 06:00 15,8 °C 76 % 1022,8 hPa 0,0 l/m² 1,6 km/h (1 Bft) W-SW 247 ° 0 min 0,051 mm 28 W/m² 14,5 km/h (3 Bft)
20.05.2022 05:45 16,2 °C 74 % 1023,0 hPa 0,0 l/m² 9,7 km/h (2 Bft) S 180 ° 0 min 0,000 mm 12 W/m² 20,9 km/h (4 Bft)
20.05.2022 05:30 16,2 °C 74 % 1022,9 hPa 0,0 l/m² 14,5 km/h (3 Bft) S 180 ° 0 min 0,000 mm 5 W/m² 24,1 km/h (4 Bft)
20.05.2022 05:15 16,4 °C 72 % 1022,9 hPa 0,0 l/m² 12,9 km/h (3 Bft) S-SW 202 ° 0 min 0,000 mm 0 W/m² 22,5 km/h (4 Bft)
20.05.2022 05:00 17,2 °C 69 % 1023,1 hPa 0,0 l/m² 11,3 km/h (2 Bft) S-SW 202 ° 0 min 0,025 mm 0 W/m² 25,7 km/h (4 Bft)
20.05.2022 04:45 18,3 °C 66 % 1023,3 hPa 0,0 l/m² 4,8 km/h (1 Bft) S 180 ° 0 min 0,000 mm 0 W/m² 19,3 km/h (3 Bft)
20.05.2022 04:30 18,8 °C 68 % 1023,6 hPa 0,0 l/m² 0,0 km/h (0 Bft) S-SO 157 ° 0 min 0,000 mm 0 W/m² 1,6 km/h (1 Bft)
20.05.2022 04:15 18,8 °C 67 % 1023,8 hPa 0,0 l/m² 0,0 km/h (0 Bft) SO 135 ° 0 min 0,000 mm 0 W/m² 3,2 km/h (1 Bft)
20.05.2022 04:00 19,1 °C 66 % 1023,6 hPa 0,0 l/m² 8,0 km/h (2 Bft) W-SW 247 ° 0 min 0,051 mm 0 W/m² 16,1 km/h (3 Bft)
20.05.2022 03:45 19,1 °C 66 % 1023,8 hPa 0,0 l/m² 12,9 km/h (3 Bft) W-SW 247 ° 0 min 0,000 mm 0 W/m² 24,1 km/h (4 Bft)
20.05.2022 03:30 18,3 °C 68 % 1023,9 hPa 0,0 l/m² 11,3 km/h (2 Bft) W-SW 247 ° 0 min 0,000 mm 0 W/m² 20,9 km/h (4 Bft)
20.05.2022 03:15 15,4 °C 79 % 1024,0 hPa 0,0 l/m² 11,3 km/h (2 Bft) S-SW 202 ° 0 min 0,000 mm 0 W/m² 24,1 km/h (4 Bft)
20.05.2022 03:00 12,9 °C 80 % 1023,9 hPa 0,0 l/m² 3,2 km/h (1 Bft) S 180 ° 0 min 0,025 mm 0 W/m² 20,9 km/h (4 Bft)
20.05.2022 02:45 11,1 °C 82 % 1024,1 hPa 0,0 l/m² 0,0 km/h (0 Bft) S-SO 157 ° 0 min 0,000 mm 0 W/m² 1,6 km/h (1 Bft)
20.05.2022 02:30 11,0 °C 82 % 1023,1 hPa 0,0 l/m² 0,0 km/h (0 Bft) S 180 ° 0 min 0,000 mm 0 W/m² 1,6 km/h (1 Bft)
20.05.2022 02:15 11,1 °C 81 % 1023,0 hPa 0,0 l/m² 0,0 km/h (0 Bft) S 180 ° 0 min 0,000 mm 0 W/m² 1,6 km/h (1 Bft)
20.05.2022 02:00 11,1 °C 81 % 1022,9 hPa 0,0 l/m² 0,0 km/h (0 Bft) S 180 ° 0 min 0,025 mm 0 W/m² 1,6 km/h (1 Bft)
20.05.2022 01:45 11,1 °C 81 % 1022,9 hPa 0,0 l/m² 0,0 km/h (0 Bft) S 180 ° 0 min 0,000 mm 0 W/m² 1,6 km/h (1 Bft)
20.05.2022 01:30 11,1 °C 81 % 1022,8 hPa 0,0 l/m² 0,0 km/h (0 Bft) S 180 ° 0 min 0,000 mm 0 W/m² 12,9 km/h (3 Bft)
20.05.2022 01:15 11,2 °C 81 % 1022,8 hPa 0,0 l/m² 6,4 km/h (2 Bft) S 180 ° 0 min 0,000 mm 0 W/m² 11,3 km/h (2 Bft)
20.05.2022 01:00 11,3 °C 81 % 1023,0 hPa 0,0 l/m² 1,6 km/h (1 Bft) S 180 ° 0 min 0,025 mm 0 W/m² 9,7 km/h (2 Bft)
20.05.2022 00:45 11,4 °C 81 % 1023,1 hPa 0,0 l/m² 0,0 km/h (0 Bft) N 0 ° 0 min 0,000 mm 0 W/m² 0,0 km/h (0 Bft)
20.05.2022 00:30 11,5 °C 81 % 1023,2 hPa 0,0 l/m² 0,0 km/h (0 Bft) N 0 ° 0 min 0,000 mm 0 W/m² 0,0 km/h (0 Bft)
20.05.2022 00:15 11,7 °C 81 % 1023,1 hPa 0,0 l/m² 0,0 km/h (0 Bft) S 180 ° 0 min 0,000 mm 0 W/m² 1,6 km/h (1 Bft)
20.05.2022 00:00 11,8 °C 81 % 1022,9 hPa 0,0 l/m² 0,0 km/h (0 Bft) S 180 ° 0 min 0,025 mm 0 W/m² 1,6 km/h (1 Bft)
_ Min-Zeit 02:45 03:45 01:15 - 00:00 - - - - - 00:30
Minimum _ 10,9 °C 66 % 1022,8 hPa - 0,0 km/h (0 Bft) - - - - - 0,0 km/h (0 Bft)
_ Max-Zeit 03:45 02:30 02:45 00:00 05:30 - - 07:00 04:00 07:00 05:00
Maximum _ 19,1 °C 82 % 1024,1 hPa 0,0 l/m² 14,5 km/h
S (3 Bft)
- - 15 min 0,051 mm 220 W/m² 25,7 km/h
S (4 Bft)
Durchschnitt _ 14,5 °C 76 % 1023,3 hPa #0,0 l/m² 3,9 km/h (1 Bft) S - #15 min. #0,252 mm 57 W/m² 10,0 km/h (2 Bft)
Wetterstation Oberbergern - Herbert Schneider